createdAt,value
2018-05-12T00:00:05.631Z,0.00
2018-05-12T00:01:05.538Z,0.00
2018-05-12T00:02:05.514Z,0.00
2018-05-12T00:03:05.647Z,0.00
2018-05-12T00:04:05.541Z,0.00
2018-05-12T00:05:05.813Z,0.00
2018-05-12T00:06:05.464Z,0.00
2018-05-12T00:07:05.442Z,0.00
2018-05-12T00:08:05.440Z,0.00
2018-05-12T00:09:05.463Z,0.00
2018-05-12T00:10:05.451Z,0.00
2018-05-12T00:11:05.442Z,0.00
2018-05-12T00:12:05.680Z,0.00
2018-05-12T00:13:05.357Z,0.00
2018-05-12T00:14:05.351Z,0.00
2018-05-12T00:15:05.441Z,0.00
2018-05-12T00:16:05.476Z,0.00
2018-05-12T00:17:05.310Z,0.00
2018-05-12T00:18:05.596Z,0.00
2018-05-12T00:19:05.275Z,0.00
2018-05-12T00:20:05.271Z,0.00
2018-05-12T00:21:05.246Z,0.00
2018-05-12T00:22:05.341Z,0.00
2018-05-12T00:23:05.269Z,0.00
2018-05-12T00:24:05.509Z,0.00
2018-05-12T00:25:05.196Z,0.00
2018-05-12T00:26:05.183Z,0.00
2018-05-12T00:27:05.166Z,0.00
2018-05-12T00:28:05.256Z,0.00
2018-05-12T00:29:05.195Z,0.00
2018-05-12T00:30:05.475Z,0.00
2018-05-12T00:31:05.103Z,0.00
2018-05-12T00:32:05.096Z,0.00
2018-05-12T00:33:05.082Z,0.00
2018-05-12T00:34:05.165Z,0.00
2018-05-12T00:35:05.154Z,0.00
2018-05-12T00:36:05.493Z,0.00
2018-05-12T00:37:05.017Z,0.00
2018-05-12T00:38:05.090Z,0.00
2018-05-12T00:39:05.096Z,0.00
2018-05-12T00:40:05.065Z,0.00
2018-05-12T00:41:05.054Z,0.00
2018-05-12T00:42:05.560Z,0.00
2018-05-12T00:43:05.170Z,0.00
2018-05-12T00:44:04.969Z,0.00
2018-05-12T00:45:04.905Z,0.00
2018-05-12T00:46:04.900Z,0.00
2018-05-12T00:47:04.880Z,0.00
2018-05-12T00:48:05.163Z,0.00
2018-05-12T00:49:04.898Z,0.00
2018-05-12T00:50:04.942Z,0.00
2018-05-12T00:51:04.902Z,0.00
2018-05-12T00:52:04.817Z,0.00
2018-05-12T00:53:04.885Z,0.00
2018-05-12T00:54:05.165Z,0.00
2018-05-12T00:55:04.954Z,0.00
2018-05-12T00:56:04.901Z,0.00
2018-05-12T00:57:04.745Z,0.00
2018-05-12T00:58:04.743Z,0.00
2018-05-12T00:59:04.721Z,0.00
2018-05-12T01:00:04.692Z,0.00
2018-05-12T01:01:04.984Z,0.00
2018-05-12T01:02:04.713Z,0.00
2018-05-12T01:03:05.069Z,0.00
2018-05-12T01:04:04.693Z,0.00
2018-05-12T01:05:04.633Z,0.00
2018-05-12T01:06:04.610Z,0.00
2018-05-12T01:07:04.680Z,0.00
2018-05-12T01:08:05.013Z,0.00
2018-05-12T01:09:04.707Z,0.00
2018-05-12T01:10:04.670Z,0.00
2018-05-12T01:11:04.549Z,0.00
2018-05-12T01:12:04.531Z,0.00
2018-05-12T01:13:04.516Z,0.00
2018-05-12T01:14:04.601Z,0.00
2018-05-12T01:15:04.829Z,0.00
2018-05-12T01:16:04.522Z,0.00
2018-05-12T01:17:04.530Z,0.00
2018-05-12T01:18:04.436Z,0.00
2018-05-12T01:19:04.510Z,0.00
2018-05-12T01:20:04.646Z,0.00
2018-05-12T01:21:04.477Z,0.00
2018-05-12T01:22:04.876Z,0.00
2018-05-12T01:23:04.456Z,0.00
2018-05-12T01:24:04.353Z,0.00
2018-05-12T01:25:04.347Z,0.00
2018-05-12T01:26:04.377Z,0.00
2018-05-12T01:27:04.408Z,0.00
2018-05-12T01:28:04.307Z,0.00
2018-05-12T01:29:04.590Z,0.00
2018-05-12T01:30:04.275Z,0.00
2018-05-12T01:32:04.288Z,0.00
2018-05-12T01:33:04.276Z,0.00
2018-05-12T01:34:04.218Z,0.00
2018-05-12T01:35:04.204Z,0.00
2018-05-12T01:36:04.484Z,0.00
2018-05-12T01:37:04.179Z,0.00
2018-05-12T01:38:04.218Z,0.00
2018-05-12T01:39:04.191Z,0.00
2018-05-12T01:40:04.135Z,0.00
2018-05-12T01:41:04.113Z,0.00
2018-05-12T01:42:04.103Z,0.00
2018-05-12T01:43:04.393Z,0.00
2018-05-12T01:44:04.127Z,0.00
2018-05-12T01:45:04.113Z,0.00
2018-05-12T01:46:04.104Z,0.00
2018-05-12T01:48:04.216Z,0.00
2018-05-12T01:49:04.011Z,0.00
2018-05-12T01:50:04.289Z,0.00
2018-05-12T01:52:04.065Z,0.00
2018-05-12T01:54:04.089Z,0.00
2018-05-12T01:55:03.932Z,0.00
2018-05-12T01:56:04.203Z,0.00
2018-05-12T01:57:03.894Z,0.00
2018-05-12T01:58:03.880Z,0.00
2018-05-12T01:59:03.869Z,0.00
2018-05-12T02:00:03.912Z,0.00
2018-05-12T02:01:03.941Z,0.00
2018-05-12T02:02:04.126Z,0.00
2018-05-12T02:03:03.810Z,0.00
2018-05-12T02:04:03.792Z,0.00
2018-05-12T02:05:03.786Z,0.00
2018-05-12T02:06:03.873Z,0.00
2018-05-12T02:07:03.899Z,0.00
2018-05-12T02:08:04.037Z,0.00
2018-05-12T02:09:03.729Z,0.00
2018-05-12T02:10:03.723Z,0.00
2018-05-12T02:11:03.702Z,0.00
2018-05-12T02:12:03.679Z,0.00
2018-05-12T02:13:03.722Z,0.00
2018-05-12T02:14:04.022Z,0.00
2018-05-12T02:15:03.750Z,0.00
2018-05-12T02:16:03.622Z,0.00
2018-05-12T02:18:03.598Z,0.00
2018-05-12T02:19:03.688Z,0.00
2018-05-12T02:20:03.922Z,0.00
2018-05-12T02:22:03.596Z,0.00
2018-05-12T02:23:03.538Z,0.00
2018-05-12T02:24:03.512Z,0.00
2018-05-12T02:25:03.512Z,0.00
2018-05-12T02:26:03.989Z,0.00
2018-05-12T02:27:03.470Z,0.00
2018-05-12T02:28:03.464Z,0.00
2018-05-12T02:29:03.450Z,0.00
2018-05-12T02:30:03.440Z,0.00
2018-05-12T02:31:03.413Z,0.00
2018-05-12T02:32:03.449Z,0.00
2018-05-12T02:33:04.947Z,0.00
2018-05-12T02:34:03.480Z,0.00
2018-05-12T02:35:03.373Z,0.00
2018-05-12T02:36:03.343Z,0.00
2018-05-12T02:37:03.328Z,0.00
2018-05-12T02:38:03.418Z,0.00
2018-05-12T02:39:03.402Z,0.00
2018-05-12T02:40:03.814Z,0.00
2018-05-12T02:41:03.496Z,0.00
2018-05-12T02:42:03.267Z,0.00
2018-05-12T02:43:03.258Z,0.00
2018-05-12T02:44:03.329Z,0.00
2018-05-12T02:45:03.265Z,0.00
2018-05-12T02:46:03.338Z,0.00
2018-05-12T02:47:03.501Z,0.00
2018-05-12T02:48:03.268Z,0.00
2018-05-12T02:49:03.245Z,0.00
2018-05-12T02:50:03.152Z,0.00
2018-05-12T02:51:03.181Z,4.00
2018-05-12T02:52:03.253Z,4.00
2018-05-12T02:53:03.232Z,4.00
2018-05-12T02:54:03.395Z,0.00
2018-05-12T02:55:03.092Z,0.00
2018-05-12T02:56:03.068Z,4.00
2018-05-12T02:57:03.046Z,4.00
2018-05-12T02:58:03.137Z,4.00
2018-05-12T02:59:03.065Z,4.00
2018-05-12T03:00:03.062Z,4.00
2018-05-12T03:01:03.391Z,8.00
2018-05-12T03:02:02.993Z,8.00
2018-05-12T03:03:02.959Z,8.00
2018-05-12T03:04:03.054Z,8.00
2018-05-12T03:06:03.018Z,12.00
2018-05-12T03:07:03.020Z,12.00
2018-05-12T03:08:03.191Z,16.00
2018-05-12T03:09:02.876Z,16.00
2018-05-12T03:10:03.110Z,16.00
2018-05-12T03:11:02.847Z,20.00
2018-05-12T03:12:02.843Z,24.00
2018-05-12T03:14:03.102Z,28.00
2018-05-12T03:15:02.803Z,32.00
2018-05-12T03:16:02.920Z,36.00
2018-05-12T03:18:02.795Z,44.00
2018-05-12T03:19:03.009Z,48.00
2018-05-12T03:20:03.194Z,56.00
2018-05-12T03:21:02.843Z,56.00
2018-05-12T03:22:02.866Z,60.00
2018-05-12T03:23:02.783Z,68.00
2018-05-12T03:24:02.767Z,76.00
2018-05-12T03:25:03.598Z,80.00
2018-05-12T03:26:02.951Z,88.00
2018-05-12T03:27:02.616Z,92.00
2018-05-12T03:28:02.703Z,100.00
2018-05-12T03:29:02.594Z,104.00
2018-05-12T03:30:02.580Z,112.00
2018-05-12T03:31:02.615Z,120.00
2018-05-12T03:33:02.968Z,136.00
2018-05-12T03:34:02.517Z,148.00
2018-05-12T03:35:02.501Z,156.00
2018-05-12T03:36:02.491Z,168.00
2018-05-12T03:37:02.533Z,176.00
2018-05-12T03:38:02.594Z,184.00
2018-05-12T03:39:02.751Z,192.00
2018-05-12T03:40:02.750Z,204.00
2018-05-12T03:41:02.426Z,216.00
2018-05-12T03:42:02.415Z,228.00
2018-05-12T03:43:02.598Z,236.00
2018-05-12T03:44:02.421Z,248.00
2018-05-12T03:45:02.359Z,256.00
2018-05-12T03:51:02.741Z,324.00
2018-05-12T03:52:02.256Z,340.00
2018-05-12T03:53:02.247Z,352.00
2018-05-12T03:54:02.347Z,368.00
2018-05-12T03:55:02.327Z,388.00
2018-05-12T03:56:02.332Z,400.00
2018-05-12T03:57:02.709Z,412.00
2018-05-12T03:58:02.398Z,432.00
2018-05-12T03:59:02.330Z,448.00
2018-05-12T04:00:02.213Z,464.00
2018-05-12T04:01:02.128Z,480.00
2018-05-12T04:02:02.115Z,508.00
2018-05-12T04:03:02.210Z,528.00
2018-05-12T04:04:02.550Z,548.00
2018-05-12T04:05:02.089Z,568.00
2018-05-12T04:06:02.066Z,584.00
2018-05-12T04:07:02.055Z,608.00
2018-05-12T04:08:02.131Z,620.00
2018-05-12T04:09:02.318Z,644.00
2018-05-12T04:10:02.186Z,672.00
2018-05-12T04:11:02.379Z,696.00
2018-05-12T04:12:01.976Z,728.00
2018-05-12T04:13:01.963Z,744.00
2018-05-12T04:14:02.060Z,772.00
2018-05-12T04:15:02.125Z,788.00
2018-05-12T04:16:02.056Z,832.00
2018-05-12T04:17:01.908Z,860.00
2018-05-12T04:18:02.194Z,892.00
2018-05-12T04:19:01.986Z,916.00
2018-05-12T04:20:01.951Z,940.00
2018-05-12T04:21:02.037Z,984.00
2018-05-12T04:22:01.931Z,1020.00
2018-05-12T04:23:01.826Z,1040.00
2018-05-12T04:24:01.801Z,1064.00
2018-05-12T04:25:02.112Z,1096.00
2018-05-12T04:26:01.859Z,1152.00
2018-05-12T04:27:01.898Z,1164.00
2018-05-12T04:28:01.876Z,1172.00
2018-05-12T04:29:01.816Z,1196.00
2018-05-12T04:30:01.796Z,1208.00
2018-05-12T04:31:01.701Z,1244.00
2018-05-12T04:32:01.992Z,1288.00
2018-05-12T04:33:01.791Z,1336.00
2018-05-12T04:34:01.718Z,1336.00
2018-05-12T04:35:01.649Z,1360.00
2018-05-12T04:36:01.638Z,1384.00
2018-05-12T04:37:01.631Z,1404.00
2018-05-12T04:38:01.613Z,1416.00
2018-05-12T04:39:02.032Z,1448.00
2018-05-12T04:40:01.689Z,1488.00
2018-05-12T04:41:01.567Z,1504.00
2018-05-12T04:42:01.554Z,1528.00
2018-05-12T04:43:01.533Z,1556.00
2018-05-12T04:44:01.525Z,1612.00
2018-05-12T04:45:01.560Z,1652.00
2018-05-12T04:46:01.838Z,1692.00
2018-05-12T04:47:01.539Z,1716.00
2018-05-12T04:48:01.466Z,1732.00
2018-05-12T04:49:01.460Z,1728.00
2018-05-12T04:50:01.442Z,1736.00
2018-05-12T04:51:01.528Z,1760.00
2018-05-12T04:53:01.749Z,1848.00
2018-05-12T04:54:01.500Z,1876.00
2018-05-12T04:55:01.367Z,1896.00
2018-05-12T04:56:01.355Z,1916.00
2018-05-12T04:57:01.386Z,1932.00
2018-05-12T04:58:01.372Z,1944.00
2018-05-12T04:59:01.666Z,1980.00
2018-05-12T05:00:01.298Z,2004.00
2018-05-12T05:01:01.442Z,2036.00
2018-05-12T05:02:01.281Z,2100.00
2018-05-12T05:03:01.261Z,2140.00
2018-05-12T05:04:01.356Z,2180.00
2018-05-12T05:05:01.672Z,2216.00
2018-05-12T05:06:01.224Z,2256.00
2018-05-12T05:07:01.202Z,2284.00
2018-05-12T05:08:01.189Z,2340.00
2018-05-12T05:09:01.184Z,2356.00
2018-05-12T05:10:01.420Z,2340.00
2018-05-12T05:11:01.497Z,2304.00
2018-05-12T05:13:01.120Z,2368.00
2018-05-12T05:14:01.194Z,2348.00
2018-05-12T05:15:01.104Z,2364.00
2018-05-12T05:16:01.135Z,2400.00
2018-05-12T05:17:01.417Z,2476.00
2018-05-12T05:18:01.053Z,2568.00
2018-05-12T05:20:01.027Z,2644.00
2018-05-12T05:21:01.010Z,2680.00
2018-05-12T05:22:01.057Z,2740.00
2018-05-12T05:23:01.343Z,2808.00
2018-05-12T05:24:00.973Z,2908.00
2018-05-12T05:25:00.957Z,2964.00
2018-05-12T05:26:00.951Z,3036.00
2018-05-12T05:27:00.935Z,3088.00
2018-05-12T05:28:01.138Z,3104.00
2018-05-12T05:29:01.254Z,3148.00
2018-05-12T05:30:00.942Z,3220.00
2018-05-12T05:32:00.878Z,3356.00
2018-05-12T05:33:00.859Z,3404.00
2018-05-12T05:34:00.942Z,3408.00
2018-05-12T05:35:01.032Z,3428.00
2018-05-12T05:36:01.131Z,3484.00
2018-05-12T05:37:00.809Z,3540.00
2018-05-12T05:38:00.979Z,3584.00
2018-05-12T05:39:00.865Z,3672.00
2018-05-12T05:40:00.896Z,3720.00
2018-05-12T05:41:00.803Z,3724.00
2018-05-12T05:42:00.734Z,3756.00
2018-05-12T05:43:01.031Z,3776.00
2018-05-12T05:44:00.718Z,3836.00
2018-05-12T05:45:00.702Z,3844.00
2018-05-12T05:46:00.791Z,3856.00
2018-05-12T05:47:00.802Z,3868.00
2018-05-12T05:48:00.772Z,3904.00
2018-05-12T05:49:00.827Z,3948.00
2018-05-12T05:50:01.015Z,3944.00
2018-05-12T05:51:00.635Z,3976.00
2018-05-12T05:52:00.720Z,4060.00
2018-05-12T05:53:00.652Z,4192.00
2018-05-12T05:54:00.638Z,4252.00
2018-05-12T05:56:00.854Z,4364.00
2018-05-12T05:57:00.548Z,4396.00
2018-05-12T05:58:00.586Z,4412.00
2018-05-12T06:00:00.609Z,4500.00
2018-05-12T06:01:00.592Z,4536.00
2018-05-12T06:02:00.484Z,4568.00
2018-05-12T06:04:00.955Z,4688.00
2018-05-12T06:05:00.454Z,4776.00
2018-05-12T06:06:00.430Z,4892.00
2018-05-12T06:07:00.491Z,4892.00
2018-05-12T06:08:00.406Z,4952.00
2018-05-12T06:09:00.399Z,4996.00
2018-05-12T06:10:00.438Z,4976.00
2018-05-12T06:11:00.836Z,4996.00
2018-05-12T06:12:00.362Z,5052.00
2018-05-12T06:13:00.361Z,5072.00
2018-05-12T06:14:00.338Z,5120.00
2018-05-12T06:15:00.323Z,5184.00
2018-05-12T06:16:00.312Z,5252.00
2018-05-12T06:17:00.654Z,5300.00
2018-05-12T06:18:00.451Z,5304.00
2018-05-12T06:19:00.272Z,5328.00
2018-05-12T06:20:00.268Z,5324.00
2018-05-12T06:21:00.256Z,5396.00
2018-05-12T06:22:00.242Z,5512.00
2018-05-12T06:23:00.579Z,5540.00
2018-05-12T06:24:00.270Z,5496.00
2018-05-12T06:25:00.264Z,5480.00
2018-05-12T06:26:00.195Z,5512.00
2018-05-12T06:27:00.190Z,5528.00
2018-05-12T06:28:00.271Z,5548.00
2018-05-12T06:29:00.459Z,5524.00
2018-05-12T06:30:00.193Z,5516.00
2018-05-12T06:31:00.192Z,5512.00
2018-05-12T06:32:00.234Z,5564.00
2018-05-12T06:33:00.281Z,5676.00
2018-05-12T06:34:00.214Z,5820.00
2018-05-12T06:35:00.389Z,6032.00
2018-05-12T06:38:00.160Z,6248.00
2018-05-12T06:39:00.140Z,6344.00
2018-05-12T06:40:00.087Z,6388.00
2018-05-12T06:41:00.047Z,6448.00
2018-05-12T06:42:00.313Z,6564.00
2018-05-12T06:43:00.003Z,6572.00
2018-05-12T06:43:59.984Z,6700.00
2018-05-12T06:45:00.085Z,6868.00
2018-05-12T06:46:00.069Z,6976.00
2018-05-12T06:47:00.026Z,6896.00
2018-05-12T06:47:59.943Z,6936.00
2018-05-12T06:49:00.245Z,6968.00
2018-05-12T06:49:59.925Z,7012.00
2018-05-12T06:51:00.412Z,7044.00
2018-05-12T06:52:00.074Z,7208.00
2018-05-12T06:52:59.934Z,7240.00
2018-05-12T06:53:59.998Z,7300.00
2018-05-12T06:55:00.283Z,7372.00
2018-05-12T06:55:59.875Z,7416.00
2018-05-12T06:56:59.848Z,7416.00
2018-05-12T06:58:00.044Z,7316.00
2018-05-12T06:59:00.044Z,7372.00
2018-05-12T07:01:00.127Z,7548.00
2018-05-12T07:01:59.831Z,7612.00
2018-05-12T07:02:59.779Z,7768.00
2018-05-12T07:03:59.765Z,7908.00
2018-05-12T07:04:59.857Z,7972.00
2018-05-12T07:05:59.797Z,8092.00
2018-05-12T07:07:00.269Z,8224.00
2018-05-12T07:07:59.815Z,8288.00
2018-05-12T07:08:59.715Z,8100.00
2018-05-12T07:09:59.771Z,7944.00
2018-05-12T07:10:59.818Z,7868.00
2018-05-12T07:11:59.794Z,7864.00
2018-05-12T07:13:00.022Z,8092.00
2018-05-12T07:13:59.673Z,8356.00
2018-05-12T07:14:59.651Z,8732.00
2018-05-12T07:15:59.648Z,9388.00
2018-05-12T07:16:59.643Z,9628.00
2018-05-12T07:17:59.776Z,9684.00
2018-05-12T07:18:59.612Z,9656.00
2018-05-12T07:19:59.909Z,9832.00
2018-05-12T07:20:59.586Z,9860.00
2018-05-12T07:21:59.664Z,9716.00
2018-05-12T07:22:59.578Z,10048.00
2018-05-12T07:23:59.619Z,10120.00
2018-05-12T07:24:59.651Z,10628.00
2018-05-12T07:25:59.859Z,10184.00
2018-05-12T07:26:59.535Z,10340.00
2018-05-12T07:27:59.520Z,9944.00
2018-05-12T07:28:59.533Z,10112.00
2018-05-12T07:29:59.557Z,10064.00
2018-05-12T07:30:59.545Z,10256.00
2018-05-12T07:31:59.542Z,9804.00
2018-05-12T07:32:59.773Z,8912.00
2018-05-12T07:33:59.575Z,8776.00
2018-05-12T07:34:59.469Z,8860.00
2018-05-12T07:35:59.550Z,8784.00
2018-05-12T07:36:59.548Z,8876.00
2018-05-12T07:37:59.511Z,8980.00
2018-05-12T07:38:59.512Z,9376.00
2018-05-12T07:39:59.724Z,9788.00
2018-05-12T07:41:59.448Z,8704.00
2018-05-12T07:42:59.543Z,8632.00
2018-05-12T07:43:59.441Z,8604.00
2018-05-12T07:44:59.473Z,7912.00
2018-05-12T07:45:59.665Z,7728.00
2018-05-12T07:46:59.355Z,7496.00
2018-05-12T07:47:59.604Z,6784.00
2018-05-12T07:48:59.348Z,7272.00
2018-05-12T07:49:59.326Z,5552.00
2018-05-12T07:50:59.330Z,6004.00
2018-05-12T07:51:59.609Z,5632.00
2018-05-12T07:52:59.312Z,6296.00
2018-05-12T07:53:59.394Z,6048.00
2018-05-12T07:54:59.334Z,5576.00
2018-05-12T07:56:04.194Z,6524.00
2018-05-12T07:56:59.323Z,6640.00
2018-05-12T07:57:59.568Z,6708.00
2018-05-12T07:58:59.264Z,7084.00
2018-05-12T07:59:59.305Z,7296.00
2018-05-12T08:00:59.238Z,8120.00
2018-05-12T08:01:59.364Z,7884.00
2018-05-12T08:02:59.329Z,7956.00
2018-05-12T08:03:59.521Z,7976.00
2018-05-12T08:05:59.221Z,9248.00
2018-05-12T08:06:59.252Z,9144.00
2018-05-12T08:07:59.260Z,9536.00
2018-05-12T08:08:59.231Z,9172.00
2018-05-12T08:09:59.522Z,8920.00
2018-05-12T08:10:59.163Z,8700.00
2018-05-12T08:11:59.170Z,7556.00
2018-05-12T08:12:59.155Z,6956.00
2018-05-12T08:13:59.192Z,6944.00
2018-05-12T08:14:59.245Z,7732.00
2018-05-12T08:15:59.621Z,8040.00
2018-05-12T08:16:59.130Z,8248.00
2018-05-12T08:17:59.130Z,8172.00
2018-05-12T08:18:59.111Z,7804.00
2018-05-12T08:19:59.108Z,8360.00
2018-05-12T08:20:59.205Z,8872.00
2018-05-12T08:21:59.498Z,9968.00
2018-05-12T08:22:59.083Z,10840.00
2018-05-12T08:23:59.089Z,12548.00
2018-05-12T08:24:59.066Z,12212.00
2018-05-12T08:25:59.069Z,12088.00
2018-05-12T08:26:59.649Z,12180.00
2018-05-12T08:27:59.398Z,12504.00
2018-05-12T08:28:59.041Z,12284.00
2018-05-12T08:29:59.030Z,12684.00
2018-05-12T08:30:59.290Z,12816.00
2018-05-12T08:31:59.027Z,12468.00
2018-05-12T08:32:59.066Z,13612.00
2018-05-12T08:33:59.364Z,10568.00
2018-05-12T08:34:59.009Z,9676.00
2018-05-12T08:35:58.991Z,9080.00
2018-05-12T08:36:58.991Z,10568.00
2018-05-12T08:37:58.995Z,10832.00
2018-05-12T08:38:59.281Z,10168.00
2018-05-12T08:39:59.272Z,9824.00
2018-05-12T08:40:58.962Z,11136.00
2018-05-12T08:41:58.980Z,9736.00
2018-05-12T08:42:58.958Z,9524.00
2018-05-12T08:43:58.959Z,12288.00
2018-05-12T08:44:59.442Z,11156.00
2018-05-12T08:45:59.271Z,10816.00
2018-05-12T08:46:58.937Z,11900.00
2018-05-12T08:47:58.927Z,11992.00
2018-05-12T08:48:58.933Z,11840.00
2018-05-12T08:49:59.362Z,11480.00
2018-05-12T08:50:59.143Z,10988.00
2018-05-12T08:51:59.351Z,11600.00
2018-05-12T08:52:58.896Z,11980.00
2018-05-12T08:53:59.131Z,12868.00
2018-05-12T08:54:58.899Z,12312.00
2018-05-12T08:55:58.937Z,11004.00
2018-05-12T08:56:58.985Z,14400.00
2018-05-12T08:57:59.463Z,15328.00
2018-05-12T08:58:58.873Z,13832.00
2018-05-12T08:59:58.868Z,12648.00
2018-05-12T09:00:58.875Z,10436.00
2018-05-12T09:01:58.868Z,12288.00
2018-05-12T09:02:58.863Z,12936.00
2018-05-12T09:03:58.947Z,11532.00
2018-05-12T09:04:59.407Z,13520.00
2018-05-12T09:05:58.851Z,13268.00
2018-05-12T09:06:58.955Z,13868.00
2018-05-12T09:07:58.842Z,14464.00
2018-05-12T09:08:58.834Z,15296.00
2018-05-12T09:09:58.875Z,15392.00
2018-05-12T09:10:59.177Z,16960.00
2018-05-12T09:11:58.880Z,17056.00
2018-05-12T09:12:58.920Z,17216.00
2018-05-12T09:13:58.894Z,15264.00
2018-05-12T09:15:58.909Z,14672.00
2018-05-12T09:17:02.374Z,16288.00
2018-05-12T09:17:58.809Z,14652.00
2018-05-12T09:18:58.841Z,14416.00
2018-05-12T09:20:58.811Z,12480.00
2018-05-12T09:21:59.359Z,11808.00
2018-05-12T09:22:58.846Z,12312.00
2018-05-12T09:23:59.111Z,12520.00
2018-05-12T09:24:58.776Z,12204.00
2018-05-12T09:26:59.014Z,12112.00
2018-05-12T09:27:58.986Z,14180.00
2018-05-12T09:28:58.910Z,13244.00
2018-05-12T09:29:59.161Z,13696.00
2018-05-12T09:30:58.754Z,15200.00
2018-05-12T09:31:58.890Z,16224.00
2018-05-12T09:32:59.727Z,16768.00
2018-05-12T09:33:58.790Z,17152.00
2018-05-12T09:34:58.768Z,17024.00
2018-05-12T09:35:59.096Z,18080.00
2018-05-12T09:36:58.734Z,17824.00
2018-05-12T09:37:58.770Z,20096.00
2018-05-12T09:38:58.874Z,21856.00
2018-05-12T09:39:58.866Z,22400.00
2018-05-12T09:40:58.882Z,22944.00
2018-05-12T09:41:59.032Z,22848.00
2018-05-12T09:43:59.501Z,21632.00
2018-05-12T09:44:58.726Z,23424.00
2018-05-12T09:45:58.726Z,23616.00
2018-05-12T09:46:58.818Z,22464.00
2018-05-12T09:47:58.768Z,23488.00
2018-05-12T09:48:59.972Z,21312.00
2018-05-12T09:49:58.789Z,21856.00
2018-05-12T09:50:58.801Z,21408.00
2018-05-12T09:51:58.711Z,21600.00
2018-05-12T09:52:58.702Z,22176.00
2018-05-12T09:53:58.705Z,17856.00
2018-05-12T09:54:59.056Z,22592.00
2018-05-12T09:55:58.803Z,22496.00
2018-05-12T09:56:58.707Z,22112.00
2018-05-12T09:57:58.714Z,23136.00
2018-05-12T09:58:58.699Z,24032.00
2018-05-12T09:59:58.707Z,24352.00
2018-05-12T10:00:59.173Z,24832.00
2018-05-12T10:01:58.705Z,19744.00
2018-05-12T10:02:58.806Z,20480.00
2018-05-12T10:03:58.744Z,21504.00
2018-05-12T10:04:58.706Z,24256.00
2018-05-12T10:05:58.707Z,25504.00
2018-05-12T10:06:59.004Z,27936.00
2018-05-12T10:07:58.699Z,30176.00
2018-05-12T10:08:58.764Z,32864.00
2018-05-12T10:09:58.796Z,35936.00
2018-05-12T10:10:58.748Z,36960.00
2018-05-12T10:11:58.689Z,35264.00
2018-05-12T10:12:59.000Z,34144.00
2018-05-12T10:13:58.708Z,33600.00
2018-05-12T10:14:58.787Z,35168.00
2018-05-12T10:16:01.207Z,34944.00
2018-05-12T10:16:58.696Z,35616.00
2018-05-12T10:17:58.689Z,34176.00
2018-05-12T10:18:58.991Z,34976.00
2018-05-12T10:19:58.690Z,33216.00
2018-05-12T10:20:58.686Z,32128.00
2018-05-12T10:21:58.741Z,31104.00
2018-05-12T10:22:58.789Z,28864.00
2018-05-12T10:23:58.906Z,26912.00
2018-05-12T10:24:58.699Z,24928.00
2018-05-12T10:25:58.994Z,25728.00
2018-05-12T10:26:58.690Z,24608.00
2018-05-12T10:27:58.787Z,21760.00
2018-05-12T10:29:00.007Z,22784.00
2018-05-12T10:29:58.679Z,33248.00
2018-05-12T10:30:58.685Z,29632.00
2018-05-12T10:31:58.989Z,31712.00
2018-05-12T10:32:58.787Z,29984.00
2018-05-12T10:33:58.829Z,27616.00
2018-05-12T10:34:58.808Z,26720.00
2018-05-12T10:35:58.678Z,26912.00
2018-05-12T10:36:58.799Z,27968.00
2018-05-12T10:37:58.687Z,30048.00
2018-05-12T10:38:59.016Z,46208.00
2018-05-12T10:39:58.721Z,45568.00
2018-05-12T10:40:58.726Z,58272.00
2018-05-12T10:43:58.686Z,26848.00
2018-05-12T10:44:58.967Z,35360.00
2018-05-12T10:45:58.774Z,43584.00
2018-05-12T10:46:58.762Z,25760.00
2018-05-12T10:47:58.768Z,22208.00
2018-05-12T10:48:58.663Z,64960.00
2018-05-12T10:49:58.665Z,65984.00
2018-05-12T10:50:58.655Z,28992.00
2018-05-12T10:51:58.980Z,27904.00
2018-05-12T10:53:58.748Z,30016.00
2018-05-12T10:54:58.691Z,28864.00
2018-05-12T10:55:58.653Z,28320.00
2018-05-12T10:56:58.899Z,30400.00
2018-05-12T10:57:58.636Z,34336.00
2018-05-12T10:58:59.049Z,35136.00
2018-05-12T11:00:58.688Z,30400.00
2018-05-12T11:01:58.790Z,30016.00
2018-05-12T11:02:58.638Z,28736.00
2018-05-12T11:03:58.793Z,28896.00
2018-05-12T11:04:59.565Z,26912.00
2018-05-12T11:05:58.644Z,23328.00
2018-05-12T11:06:58.663Z,71936.00
2018-05-12T11:07:58.665Z,53408.00
2018-05-12T11:08:58.673Z,85056.00
2018-05-12T11:10:58.904Z,78976.00
2018-05-12T11:11:58.600Z,78752.00
2018-05-12T11:12:58.655Z,80704.00
2018-05-12T11:13:58.701Z,79008.00
2018-05-12T11:14:58.604Z,79424.00
2018-05-12T11:15:58.649Z,71552.00
2018-05-12T11:16:58.890Z,41888.00
2018-05-12T11:17:58.598Z,68448.00
2018-05-12T11:18:59.010Z,21920.00
2018-05-12T11:19:58.798Z,21408.00
2018-05-12T11:20:58.597Z,26624.00
2018-05-12T11:21:58.756Z,39552.00
2018-05-12T11:22:58.645Z,24864.00
2018-05-12T11:23:58.898Z,23840.00
2018-05-12T11:24:58.642Z,23968.00
2018-05-12T11:25:58.640Z,22688.00
2018-05-12T11:26:58.696Z,19872.00
2018-05-12T11:27:58.592Z,19136.00
2018-05-12T11:28:58.594Z,19904.00
2018-05-12T11:29:58.897Z,23776.00
2018-05-12T11:30:58.579Z,33856.00
2018-05-12T11:31:58.706Z,27360.00
2018-05-12T11:33:59.514Z,30208.00
2018-05-12T11:34:58.732Z,24992.00
2018-05-12T11:35:58.953Z,25632.00
2018-05-12T11:36:59.821Z,27680.00
2018-05-12T11:37:58.732Z,27200.00
2018-05-12T11:39:06.501Z,26912.00
2018-05-12T11:39:58.682Z,28448.00
2018-05-12T11:40:58.675Z,25472.00
2018-05-12T11:42:58.677Z,31328.00
2018-05-12T11:43:58.564Z,36000.00
2018-05-12T11:44:58.662Z,46784.00
2018-05-12T11:45:58.669Z,33952.00
2018-05-12T11:46:58.663Z,30432.00
2018-05-12T11:47:58.904Z,30464.00
2018-05-12T11:48:58.654Z,29760.00
2018-05-12T11:49:58.572Z,29728.00
2018-05-12T11:50:58.949Z,28704.00
2018-05-12T11:51:58.654Z,30016.00
2018-05-12T11:52:58.564Z,32416.00
2018-05-12T11:53:58.941Z,36192.00
2018-05-12T11:54:58.633Z,40992.00
2018-05-12T11:55:58.533Z,57728.00
2018-05-12T11:56:58.568Z,68960.00
2018-05-12T11:59:58.914Z,33184.00
2018-05-12T12:00:58.989Z,27456.00
2018-05-12T12:01:58.662Z,24736.00
2018-05-12T12:02:58.577Z,23840.00
2018-05-12T12:03:58.627Z,24384.00
2018-05-12T12:04:58.510Z,27456.00
2018-05-12T12:05:58.509Z,28864.00
2018-05-12T12:06:58.811Z,32992.00
2018-05-12T12:08:58.662Z,34816.00
2018-05-12T12:09:58.614Z,27520.00
2018-05-12T12:10:58.504Z,33440.00
2018-05-12T12:11:58.600Z,63264.00
2018-05-12T12:12:58.857Z,48000.00
2018-05-12T12:13:58.485Z,35712.00
2018-05-12T12:14:58.590Z,37568.00
2018-05-12T12:15:58.580Z,40512.00
2018-05-12T12:16:58.485Z,41920.00
2018-05-12T12:17:58.499Z,38880.00
2018-05-12T12:18:58.543Z,39680.00
2018-05-12T12:19:58.841Z,55776.00
2018-05-12T12:20:58.636Z,46048.00
2018-05-12T12:21:58.677Z,38176.00
2018-05-12T12:22:58.589Z,29472.00
2018-05-12T12:23:58.481Z,25504.00
2018-05-12T12:24:58.495Z,24832.00
2018-05-12T12:25:58.469Z,24192.00
2018-05-12T12:26:59.744Z,24032.00
2018-05-12T12:27:58.477Z,25408.00
2018-05-12T12:28:58.570Z,31136.00
2018-05-12T12:29:58.468Z,72992.00
2018-05-12T12:30:58.586Z,29152.00
2018-05-12T12:31:58.458Z,26592.00
2018-05-12T12:32:59.006Z,24288.00
2018-05-12T12:33:58.612Z,25152.00
2018-05-12T12:34:58.457Z,28064.00
2018-05-12T12:35:58.529Z,26240.00
2018-05-12T12:36:58.456Z,29856.00
2018-05-12T12:37:58.460Z,44672.00
2018-05-12T12:38:58.751Z,26592.00
2018-05-12T12:39:58.497Z,19904.00
2018-05-12T12:40:58.551Z,20768.00
2018-05-12T12:41:58.454Z,18048.00
2018-05-12T12:42:58.449Z,19520.00
2018-05-12T12:43:58.447Z,25152.00
2018-05-12T12:44:58.772Z,40640.00
2018-05-12T12:45:58.488Z,28384.00
2018-05-12T12:46:58.651Z,22336.00
2018-05-12T12:47:58.488Z,24224.00
2018-05-12T12:48:58.435Z,51552.00
2018-05-12T12:49:58.434Z,60416.00
2018-05-12T12:50:58.480Z,71392.00
2018-05-12T12:52:02.548Z,60832.00
2018-05-12T12:52:58.481Z,47488.00
2018-05-12T12:53:58.424Z,32800.00
2018-05-12T12:55:58.471Z,21824.00
2018-05-12T12:57:58.773Z,18944.00
2018-05-12T12:58:58.430Z,19392.00